sensor_id;sensor_type;location;lat;lon;timestamp;P1;durP1;ratioP1;P2;durP2;ratioP2
9940;SDS011;5009;50.656;7.188;2023-03-03T05:02:58;52.17;;;32.77;;
9940;SDS011;5009;50.656;7.188;2023-03-03T05:05:24;49.33;;;34.03;;
9940;SDS011;5009;50.656;7.188;2023-03-03T05:07:49;54.23;;;34.70;;
9940;SDS011;5009;50.656;7.188;2023-03-03T05:10:15;51.33;;;34.47;;
9940;SDS011;5009;50.656;7.188;2023-03-03T05:12:41;47.93;;;33.20;;
9940;SDS011;5009;50.656;7.188;2023-03-03T05:15:07;53.00;;;36.07;;
9940;SDS011;5009;50.656;7.188;2023-03-03T05:17:33;53.47;;;35.70;;
9940;SDS011;5009;50.656;7.188;2023-03-03T05:19:59;54.33;;;36.23;;
9940;SDS011;5009;50.656;7.188;2023-03-03T05:22:24;52.37;;;36.20;;
9940;SDS011;5009;50.656;7.188;2023-03-03T05:24:50;52.63;;;35.90;;
9940;SDS011;5009;50.656;7.188;2023-03-03T05:27:17;51.60;;;36.13;;
9940;SDS011;5009;50.656;7.188;2023-03-03T05:29:43;48.80;;;34.10;;
9940;SDS011;5009;50.656;7.188;2023-03-03T05:32:09;49.37;;;34.23;;
9940;SDS011;5009;50.656;7.188;2023-03-03T05:34:34;50.13;;;34.00;;
9940;SDS011;5009;50.656;7.188;2023-03-03T05:37:00;52.23;;;35.40;;
9940;SDS011;5009;50.656;7.188;2023-03-03T05:39:27;53.87;;;34.80;;
9940;SDS011;5009;50.656;7.188;2023-03-03T05:41:53;49.57;;;35.80;;
9940;SDS011;5009;50.656;7.188;2023-03-03T05:44:19;51.27;;;35.40;;
9940;SDS011;5009;50.656;7.188;2023-03-03T05:46:45;49.60;;;33.80;;
9940;SDS011;5009;50.656;7.188;2023-03-03T05:49:11;51.57;;;34.43;;
9940;SDS011;5009;50.656;7.188;2023-03-03T05:51:36;53.77;;;37.13;;
9940;SDS011;5009;50.656;7.188;2023-03-03T05:54:02;52.10;;;35.93;;
9940;SDS011;5009;50.656;7.188;2023-03-03T05:56:27;51.83;;;36.07;;
9940;SDS011;5009;50.656;7.188;2023-03-03T05:58:53;52.93;;;36.93;;
9940;SDS011;5009;50.656;7.188;2023-03-03T06:02:41;53.00;;;36.67;;
9940;SDS011;5009;50.656;7.188;2023-03-03T06:05:06;51.80;;;36.17;;
9940;SDS011;5009;50.656;7.188;2023-03-03T06:07:32;51.27;;;35.10;;
9940;SDS011;5009;50.656;7.188;2023-03-03T06:09:58;54.30;;;35.73;;
9940;SDS011;5009;50.656;7.188;2023-03-03T06:12:24;55.13;;;37.47;;
9940;SDS011;5009;50.656;7.188;2023-03-03T06:14:49;57.50;;;37.17;;
9940;SDS011;5009;50.656;7.188;2023-03-03T06:17:15;57.80;;;38.10;;
9940;SDS011;5009;50.656;7.188;2023-03-03T06:19:41;58.00;;;38.30;;
9940;SDS011;5009;50.656;7.188;2023-03-03T06:22:06;56.23;;;37.17;;
9940;SDS011;5009;50.656;7.188;2023-03-03T06:24:33;55.20;;;36.30;;
9940;SDS011;5009;50.656;7.188;2023-03-03T06:26:59;52.30;;;35.70;;
9940;SDS011;5009;50.656;7.188;2023-03-03T06:29:25;51.10;;;36.27;;
9940;SDS011;5009;50.656;7.188;2023-03-03T06:31:51;52.70;;;34.80;;
9940;SDS011;5009;50.656;7.188;2023-03-03T06:34:17;52.50;;;36.50;;
9940;SDS011;5009;50.656;7.188;2023-03-03T06:36:43;52.50;;;35.63;;
9940;SDS011;5009;50.656;7.188;2023-03-03T06:39:09;48.27;;;33.87;;
9940;SDS011;5009;50.656;7.188;2023-03-03T06:41:35;52.93;;;33.60;;
9940;SDS011;5009;50.656;7.188;2023-03-03T06:44:01;51.47;;;34.77;;
9940;SDS011;5009;50.656;7.188;2023-03-03T06:46:27;50.10;;;34.30;;
9940;SDS011;5009;50.656;7.188;2023-03-03T06:48:52;50.90;;;34.40;;
9940;SDS011;5009;50.656;7.188;2023-03-03T06:51:30;47.97;;;34.97;;
9940;SDS011;5009;50.656;7.188;2023-03-03T06:54:08;51.63;;;35.33;;
9940;SDS011;5009;50.656;7.188;2023-03-03T06:56:39;46.90;;;34.13;;
9940;SDS011;5009;50.656;7.188;2023-03-03T06:59:15;47.93;;;33.63;;
9940;SDS011;5009;50.656;7.188;2023-03-03T07:01:43;44.30;;;31.17;;
9940;SDS011;5009;50.656;7.188;2023-03-03T07:04:52;44.33;;;32.73;;
9940;SDS011;5009;50.656;7.188;2023-03-03T07:06:59;43.50;;;31.27;;
9940;SDS011;5009;50.656;7.188;2023-03-03T07:09:35;41.70;;;30.37;;
9940;SDS011;5009;50.656;7.188;2023-03-03T07:12:01;42.13;;;30.73;;
9940;SDS011;5009;50.656;7.188;2023-03-03T07:14:35;42.70;;;28.87;;
9940;SDS011;5009;50.656;7.188;2023-03-03T07:17:09;43.23;;;30.03;;
9940;SDS011;5009;50.656;7.188;2023-03-03T07:19:40;45.23;;;29.93;;
9940;SDS011;5009;50.656;7.188;2023-03-03T07:24:36;45.73;;;30.97;;
9940;SDS011;5009;50.656;7.188;2023-03-03T07:29:35;46.20;;;30.80;;
9940;SDS011;5009;50.656;7.188;2023-03-03T07:32:07;43.43;;;30.47;;
9940;SDS011;5009;50.656;7.188;2023-03-03T07:34:58;44.20;;;30.47;;
9940;SDS011;5009;50.656;7.188;2023-03-03T07:37:28;43.50;;;31.30;;
9940;SDS011;5009;50.656;7.188;2023-03-03T07:39:58;44.90;;;31.23;;
9940;SDS011;5009;50.656;7.188;2023-03-03T07:47:55;44.67;;;31.40;;
9940;SDS011;5009;50.656;7.188;2023-03-03T07:50:40;43.10;;;31.23;;
9940;SDS011;5009;50.656;7.188;2023-03-03T07:56:02;41.37;;;29.63;;
9940;SDS011;5009;50.656;7.188;2023-03-03T07:58:39;47.00;;;32.00;;
9940;SDS011;5009;50.656;7.188;2023-03-03T08:03:53;44.83;;;31.33;;
9940;SDS011;5009;50.656;7.188;2023-03-03T08:14:39;49.03;;;31.33;;
9940;SDS011;5009;50.656;7.188;2023-03-03T08:17:21;45.93;;;31.53;;
9940;SDS011;5009;50.656;7.188;2023-03-03T08:19:52;44.97;;;31.53;;
9940;SDS011;5009;50.656;7.188;2023-03-03T08:22:25;46.70;;;29.70;;
9940;SDS011;5009;50.656;7.188;2023-03-03T08:24:57;43.60;;;30.57;;
9940;SDS011;5009;50.656;7.188;2023-03-03T08:27:22;46.60;;;30.43;;
9940;SDS011;5009;50.656;7.188;2023-03-03T08:29:48;47.10;;;31.10;;
9940;SDS011;5009;50.656;7.188;2023-03-03T08:32:14;43.67;;;31.00;;
9940;SDS011;5009;50.656;7.188;2023-03-03T08:34:39;48.37;;;32.03;;
9940;SDS011;5009;50.656;7.188;2023-03-03T08:37:05;44.17;;;29.97;;
9940;SDS011;5009;50.656;7.188;2023-03-03T08:39:31;48.43;;;31.07;;
9940;SDS011;5009;50.656;7.188;2023-03-03T08:41:56;53.13;;;32.57;;
9940;SDS011;5009;50.656;7.188;2023-03-03T08:44:22;45.97;;;31.93;;
9940;SDS011;5009;50.656;7.188;2023-03-03T08:46:48;46.13;;;33.33;;
9940;SDS011;5009;50.656;7.188;2023-03-03T08:49:13;48.33;;;31.03;;
9940;SDS011;5009;50.656;7.188;2023-03-03T08:51:39;48.67;;;33.53;;
9940;SDS011;5009;50.656;7.188;2023-03-03T08:54:05;48.67;;;33.03;;
9940;SDS011;5009;50.656;7.188;2023-03-03T08:56:30;46.07;;;32.77;;
9940;SDS011;5009;50.656;7.188;2023-03-03T08:58:56;48.07;;;32.63;;
9940;SDS011;5009;50.656;7.188;2023-03-03T09:02:43;48.93;;;32.83;;
9940;SDS011;5009;50.656;7.188;2023-03-03T09:05:09;44.60;;;31.93;;
9940;SDS011;5009;50.656;7.188;2023-03-03T09:07:36;48.30;;;32.77;;
9940;SDS011;5009;50.656;7.188;2023-03-03T09:10:02;49.70;;;31.80;;
9940;SDS011;5009;50.656;7.188;2023-03-03T09:12:29;44.37;;;31.37;;
9940;SDS011;5009;50.656;7.188;2023-03-03T09:15:07;50.83;;;32.53;;
9940;SDS011;5009;50.656;7.188;2023-03-03T09:17:59;47.87;;;31.60;;
9940;SDS011;5009;50.656;7.188;2023-03-03T09:20:37;46.00;;;31.40;;
9940;SDS011;5009;50.656;7.188;2023-03-03T09:25:53;48.23;;;32.13;;
9940;SDS011;5009;50.656;7.188;2023-03-03T09:30:53;42.73;;;30.43;;
9940;SDS011;5009;50.656;7.188;2023-03-03T09:35:53;45.30;;;31.10;;
9940;SDS011;5009;50.656;7.188;2023-03-03T09:41:06;46.33;;;31.67;;
9940;SDS011;5009;50.656;7.188;2023-03-03T09:55:33;44.50;;;31.40;;
9940;SDS011;5009;50.656;7.188;2023-03-03T09:58:13;43.97;;;30.37;;
9940;SDS011;5009;50.656;7.188;2023-03-03T10:06:32;41.67;;;29.13;;
9940;SDS011;5009;50.656;7.188;2023-03-03T10:12:26;43.20;;;29.20;;
9940;SDS011;5009;50.656;7.188;2023-03-03T10:20:44;40.97;;;29.50;;
9940;SDS011;5009;50.656;7.188;2023-03-03T10:23:38;46.33;;;30.73;;
9940;SDS011;5009;50.656;7.188;2023-03-03T10:28:44;40.60;;;29.47;;
9940;SDS011;5009;50.656;7.188;2023-03-03T10:31:56;41.23;;;29.60;;
9940;SDS011;5009;50.656;7.188;2023-03-03T10:42:46;47.70;;;32.60;;
9940;SDS011;5009;50.656;7.188;2023-03-03T11:01:37;43.40;;;31.20;;
9940;SDS011;5009;50.656;7.188;2023-03-03T11:04:51;40.87;;;30.37;;
9940;SDS011;5009;50.656;7.188;2023-03-03T11:10:00;43.00;;;29.33;;
9940;SDS011;5009;50.656;7.188;2023-03-03T11:21:25;39.57;;;29.67;;
9940;SDS011;5009;50.656;7.188;2023-03-03T11:29:28;36.70;;;28.10;;
9940;SDS011;5009;50.656;7.188;2023-03-03T11:32:24;37.57;;;28.97;;
9940;SDS011;5009;50.656;7.188;2023-03-03T11:41:02;37.67;;;25.73;;
9940;SDS011;5009;50.656;7.188;2023-03-03T11:46:06;34.00;;;25.87;;
9940;SDS011;5009;50.656;7.188;2023-03-03T11:48:47;43.23;;;30.50;;
9940;SDS011;5009;50.656;7.188;2023-03-03T11:51:35;45.53;;;32.63;;
9940;SDS011;5009;50.656;7.188;2023-03-03T11:54:17;38.03;;;29.13;;
9940;SDS011;5009;50.656;7.188;2023-03-03T11:56:47;32.47;;;26.23;;
9940;SDS011;5009;50.656;7.188;2023-03-03T11:59:19;35.83;;;26.87;;
9940;SDS011;5009;50.656;7.188;2023-03-03T12:02:19;33.03;;;25.63;;
9940;SDS011;5009;50.656;7.188;2023-03-03T12:04:55;38.27;;;27.67;;
9940;SDS011;5009;50.656;7.188;2023-03-03T12:07:33;36.20;;;27.73;;
9940;SDS011;5009;50.656;7.188;2023-03-03T12:13:00;37.37;;;28.37;;
9940;SDS011;5009;50.656;7.188;2023-03-03T12:26:53;35.13;;;27.83;;
9940;SDS011;5009;50.656;7.188;2023-03-03T12:29:29;38.27;;;30.90;;
9940;SDS011;5009;50.656;7.188;2023-03-03T12:32:17;35.80;;;28.70;;
9940;SDS011;5009;50.656;7.188;2023-03-03T12:35:15;35.57;;;29.53;;
9940;SDS011;5009;50.656;7.188;2023-03-03T12:38:03;36.73;;;29.10;;
9940;SDS011;5009;50.656;7.188;2023-03-03T12:40:32;41.97;;;31.33;;
9940;SDS011;5009;50.656;7.188;2023-03-03T12:45:54;43.03;;;33.77;;
9940;SDS011;5009;50.656;7.188;2023-03-03T12:56:48;38.67;;;30.20;;
9940;SDS011;5009;50.656;7.188;2023-03-03T13:07:25;39.07;;;31.53;;
9940;SDS011;5009;50.656;7.188;2023-03-03T13:12:37;39.60;;;33.20;;
9940;SDS011;5009;50.656;7.188;2023-03-03T13:15:14;40.60;;;31.60;;
9940;SDS011;5009;50.656;7.188;2023-03-03T13:17:58;38.27;;;32.10;;
9940;SDS011;5009;50.656;7.188;2023-03-03T13:23:03;41.50;;;32.00;;
9940;SDS011;5009;50.656;7.188;2023-03-03T13:25:37;39.93;;;32.33;;
9940;SDS011;5009;50.656;7.188;2023-03-03T13:28:06;40.47;;;34.10;;
9940;SDS011;5009;50.656;7.188;2023-03-03T13:30:49;44.60;;;32.30;;
9940;SDS011;5009;50.656;7.188;2023-03-03T13:33:27;40.17;;;32.70;;
9940;SDS011;5009;50.656;7.188;2023-03-03T13:36:01;41.50;;;33.10;;
9940;SDS011;5009;50.656;7.188;2023-03-03T13:38:34;44.00;;;34.87;;
9940;SDS011;5009;50.656;7.188;2023-03-03T13:48:50;41.47;;;32.37;;
9940;SDS011;5009;50.656;7.188;2023-03-03T13:54:32;37.80;;;30.87;;
9940;SDS011;5009;50.656;7.188;2023-03-03T14:00:23;42.23;;;32.30;;
9940;SDS011;5009;50.656;7.188;2023-03-03T14:05:44;48.53;;;33.47;;
9940;SDS011;5009;50.656;7.188;2023-03-03T14:11:18;39.07;;;30.30;;
9940;SDS011;5009;50.656;7.188;2023-03-03T14:16:42;39.60;;;29.27;;
9940;SDS011;5009;50.656;7.188;2023-03-03T14:19:20;39.90;;;28.97;;
9940;SDS011;5009;50.656;7.188;2023-03-03T14:32:57;41.93;;;30.67;;
9940;SDS011;5009;50.656;7.188;2023-03-03T14:35:33;37.30;;;29.70;;
9940;SDS011;5009;50.656;7.188;2023-03-03T14:38:05;43.43;;;31.27;;
9940;SDS011;5009;50.656;7.188;2023-03-03T14:41:17;41.87;;;31.60;;
9940;SDS011;5009;50.656;7.188;2023-03-03T14:43:45;39.57;;;29.03;;
9940;SDS011;5009;50.656;7.188;2023-03-03T14:46:31;38.23;;;28.90;;
9940;SDS011;5009;50.656;7.188;2023-03-03T14:49:00;41.60;;;29.73;;
9940;SDS011;5009;50.656;7.188;2023-03-03T14:51:49;39.30;;;27.97;;
9940;SDS011;5009;50.656;7.188;2023-03-03T14:54:25;41.00;;;27.77;;
9940;SDS011;5009;50.656;7.188;2023-03-03T14:59:39;40.00;;;27.87;;
9940;SDS011;5009;50.656;7.188;2023-03-03T15:04:44;45.30;;;29.37;;
9940;SDS011;5009;50.656;7.188;2023-03-03T15:07:19;40.67;;;29.43;;
9940;SDS011;5009;50.656;7.188;2023-03-03T15:10:02;41.10;;;28.07;;
9940;SDS011;5009;50.656;7.188;2023-03-03T15:17:32;41.03;;;29.10;;
9940;SDS011;5009;50.656;7.188;2023-03-03T15:20:37;40.63;;;29.90;;
9940;SDS011;5009;50.656;7.188;2023-03-03T15:23:18;47.10;;;38.63;;
9940;SDS011;5009;50.656;7.188;2023-03-03T15:25:57;44.27;;;33.70;;
9940;SDS011;5009;50.656;7.188;2023-03-03T15:53:02;44.47;;;30.40;;
9940;SDS011;5009;50.656;7.188;2023-03-03T15:58:59;45.70;;;29.30;;
9940;SDS011;5009;50.656;7.188;2023-03-03T16:01:48;44.37;;;29.70;;
9940;SDS011;5009;50.656;7.188;2023-03-03T16:04:27;41.17;;;27.60;;
9940;SDS011;5009;50.656;7.188;2023-03-03T16:10:01;49.27;;;31.80;;
9940;SDS011;5009;50.656;7.188;2023-03-03T16:15:36;43.77;;;30.37;;
9940;SDS011;5009;50.656;7.188;2023-03-03T16:24:07;50.03;;;31.33;;
9940;SDS011;5009;50.656;7.188;2023-03-03T16:26:53;48.77;;;30.77;;
9940;SDS011;5009;50.656;7.188;2023-03-03T16:32:47;44.97;;;30.30;;
9940;SDS011;5009;50.656;7.188;2023-03-03T16:35:21;50.03;;;30.87;;
9940;SDS011;5009;50.656;7.188;2023-03-03T16:37:57;52.87;;;32.53;;
9940;SDS011;5009;50.656;7.188;2023-03-03T16:40:25;47.03;;;32.40;;
9940;SDS011;5009;50.656;7.188;2023-03-03T16:43:29;44.97;;;30.23;;
9940;SDS011;5009;50.656;7.188;2023-03-03T16:48:56;47.87;;;31.57;;
9940;SDS011;5009;50.656;7.188;2023-03-03T16:51:48;51.67;;;33.63;;
9940;SDS011;5009;50.656;7.188;2023-03-03T16:57:06;56.43;;;36.70;;
9940;SDS011;5009;50.656;7.188;2023-03-03T16:59:44;60.33;;;36.87;;
9940;SDS011;5009;50.656;7.188;2023-03-03T17:07:53;74.07;;;44.03;;
9940;SDS011;5009;50.656;7.188;2023-03-03T17:11:00;69.77;;;43.33;;
9940;SDS011;5009;50.656;7.188;2023-03-03T17:13:45;72.53;;;44.67;;
9940;SDS011;5009;50.656;7.188;2023-03-03T17:16:39;68.43;;;43.53;;
9940;SDS011;5009;50.656;7.188;2023-03-03T17:22:24;74.63;;;45.43;;
9940;SDS011;5009;50.656;7.188;2023-03-03T17:25:15;83.57;;;46.13;;
9940;SDS011;5009;50.656;7.188;2023-03-03T17:30:48;79.10;;;46.17;;
9940;SDS011;5009;50.656;7.188;2023-03-03T17:36:06;82.73;;;48.87;;
9940;SDS011;5009;50.656;7.188;2023-03-03T17:39:06;79.70;;;49.17;;
9940;SDS011;5009;50.656;7.188;2023-03-03T17:44:42;84.10;;;51.53;;
9940;SDS011;5009;50.656;7.188;2023-03-03T17:47:30;79.03;;;48.83;;
9940;SDS011;5009;50.656;7.188;2023-03-03T17:50:23;78.07;;;46.60;;
9940;SDS011;5009;50.656;7.188;2023-03-03T17:53:22;80.37;;;48.57;;
9940;SDS011;5009;50.656;7.188;2023-03-03T18:06:48;81.37;;;48.53;;
9940;SDS011;5009;50.656;7.188;2023-03-03T18:15:41;78.10;;;48.63;;
9940;SDS011;5009;50.656;7.188;2023-03-03T18:18:27;78.80;;;47.67;;
9940;SDS011;5009;50.656;7.188;2023-03-03T18:20:57;84.03;;;48.63;;
9940;SDS011;5009;50.656;7.188;2023-03-03T18:25:55;81.40;;;50.13;;
9940;SDS011;5009;50.656;7.188;2023-03-03T18:32:46;85.17;;;49.10;;
9940;SDS011;5009;50.656;7.188;2023-03-03T18:38:42;123.87;;;68.37;;
9940;SDS011;5009;50.656;7.188;2023-03-03T18:40:58;121.63;;;64.63;;
9940;SDS011;5009;50.656;7.188;2023-03-03T18:46:10;82.90;;;49.20;;
9940;SDS011;5009;50.656;7.188;2023-03-03T18:48:53;90.27;;;50.83;;
9940;SDS011;5009;50.656;7.188;2023-03-03T18:54:19;84.93;;;50.87;;
9940;SDS011;5009;50.656;7.188;2023-03-03T19:04:38;93.83;;;50.93;;
9940;SDS011;5009;50.656;7.188;2023-03-03T19:07:12;90.30;;;52.57;;
9940;SDS011;5009;50.656;7.188;2023-03-03T19:12:48;93.17;;;54.60;;
9940;SDS011;5009;50.656;7.188;2023-03-03T19:22:59;102.23;;;53.77;;
9940;SDS011;5009;50.656;7.188;2023-03-03T19:25:30;103.03;;;55.43;;
9940;SDS011;5009;50.656;7.188;2023-03-03T19:41:47;92.13;;;52.00;;
9940;SDS011;5009;50.656;7.188;2023-03-03T19:47:15;90.40;;;51.63;;
9940;SDS011;5009;50.656;7.188;2023-03-03T19:55:42;92.53;;;51.97;;
9940;SDS011;5009;50.656;7.188;2023-03-03T19:58:30;92.43;;;51.60;;
9940;SDS011;5009;50.656;7.188;2023-03-03T20:01:23;94.83;;;50.97;;
9940;SDS011;5009;50.656;7.188;2023-03-03T20:09:41;95.40;;;53.90;;
9940;SDS011;5009;50.656;7.188;2023-03-03T20:12:38;96.93;;;55.60;;
9940;SDS011;5009;50.656;7.188;2023-03-03T20:15:08;104.57;;;57.23;;
9940;SDS011;5009;50.656;7.188;2023-03-03T20:17:42;104.00;;;58.33;;
9940;SDS011;5009;50.656;7.188;2023-03-03T20:28:24;102.90;;;58.47;;
9940;SDS011;5009;50.656;7.188;2023-03-03T20:34:18;96.17;;;56.17;;
9940;SDS011;5009;50.656;7.188;2023-03-03T20:39:51;98.50;;;57.77;;
9940;SDS011;5009;50.656;7.188;2023-03-03T20:53:27;108.67;;;59.37;;
9940;SDS011;5009;50.656;7.188;2023-03-03T20:55:58;106.03;;;61.07;;
9940;SDS011;5009;50.656;7.188;2023-03-03T20:58:49;100.77;;;58.77;;
9940;SDS011;5009;50.656;7.188;2023-03-03T21:01:28;106.70;;;62.07;;
9940;SDS011;5009;50.656;7.188;2023-03-03T21:06:47;108.30;;;62.37;;
9940;SDS011;5009;50.656;7.188;2023-03-03T21:09:26;109.93;;;62.17;;
9940;SDS011;5009;50.656;7.188;2023-03-03T21:11:57;109.40;;;60.93;;
9940;SDS011;5009;50.656;7.188;2023-03-03T21:14:27;110.70;;;64.63;;
9940;SDS011;5009;50.656;7.188;2023-03-03T21:16:56;110.30;;;61.03;;
9940;SDS011;5009;50.656;7.188;2023-03-03T21:19:30;111.00;;;61.10;;
9940;SDS011;5009;50.656;7.188;2023-03-03T21:21:57;110.37;;;60.47;;
9940;SDS011;5009;50.656;7.188;2023-03-03T21:27:28;110.10;;;58.30;;
9940;SDS011;5009;50.656;7.188;2023-03-03T21:30:12;111.20;;;59.10;;
9940;SDS011;5009;50.656;7.188;2023-03-03T21:32:43;105.40;;;59.87;;
9940;SDS011;5009;50.656;7.188;2023-03-03T21:35:11;105.50;;;59.57;;
9940;SDS011;5009;50.656;7.188;2023-03-03T21:37:48;101.90;;;60.57;;
9940;SDS011;5009;50.656;7.188;2023-03-03T21:40:22;112.00;;;61.00;;
9940;SDS011;5009;50.656;7.188;2023-03-03T21:42:49;105.90;;;58.43;;
9940;SDS011;5009;50.656;7.188;2023-03-03T21:45:16;112.70;;;59.57;;
9940;SDS011;5009;50.656;7.188;2023-03-03T21:47:46;108.07;;;59.73;;
9940;SDS011;5009;50.656;7.188;2023-03-03T21:50:12;97.43;;;58.40;;
9940;SDS011;5009;50.656;7.188;2023-03-03T21:52:38;101.40;;;55.40;;
9940;SDS011;5009;50.656;7.188;2023-03-03T21:55:04;101.43;;;56.50;;
9940;SDS011;5009;50.656;7.188;2023-03-03T21:57:30;107.13;;;58.53;;
9940;SDS011;5009;50.656;7.188;2023-03-03T21:59:56;105.10;;;57.43;;
